Time;durP1;ratioP1;P1;durP2;ratioP2;P2;SDS_P1;SDS_P2;PMS_P1;PMS_P2;Temp;Humidity;BMP_temperature;BMP_pressure;BME280_temperature;BME280_humidity;BME280_pressure;Samples;Min_cycle;Max_cycle;Signal;HPM_P1;HPM_P2
2022/04/29 00:00:11;406477.00;1.35;700.94;81067.00;0.27;140.88;;;;;14.60;1.00;;;;;;2272241;61;1400;-88
2022/04/29 00:02:39;730062.00;2.43;1259.41;159905.00;0.53;276.88;;;;;14.60;1.00;;;;;;2272207;61;1146;-88
2022/04/29 00:05:09;617475.00;2.06;1064.40;98357.00;0.33;170.74;;;;;14.80;1.00;;;;;;2272071;61;1005;-84
2022/04/29 00:07:36;655504.00;2.19;1130.16;121943.00;0.41;211.43;;;;;15.40;1.00;;;;;;2272183;61;1106;-87
2022/04/29 00:10:04;469170.00;1.56;808.76;80280.00;0.27;139.52;;;;;15.10;1.00;;;;;;2272252;61;1277;-88
2022/04/29 00:12:31;266969.00;0.89;461.13;90742.00;0.30;157.59;;;;;14.80;1.00;;;;;;2271999;61;1914;-88
2022/04/29 00:14:59;338589.00;1.13;584.25;81222.00;0.27;141.15;;;;;14.60;1.00;;;;;;2272135;61;1051;-87
2022/04/29 00:17:26;333327.00;1.11;575.20;82833.00;0.28;143.93;;;;;14.80;1.00;;;;;;2272181;61;1076;-86
2022/04/29 00:19:54;305061.00;1.02;526.62;85920.00;0.29;149.26;;;;;15.00;1.00;;;;;;2272251;61;1327;-89
2022/04/29 00:22:21;385014.00;1.28;664.04;81360.00;0.27;141.39;;;;;15.30;1.00;;;;;;2272247;61;1083;-88
2022/04/29 00:24:48;340028.00;1.13;586.72;87964.00;0.29;152.79;;;;;15.30;1.00;;;;;;2272195;61;1073;-87
2022/04/29 00:27:16;408810.00;1.36;704.95;80770.00;0.27;140.37;;;;;15.10;1.00;;;;;;2272118;61;1488;-85
2022/04/29 00:29:43;514830.00;1.72;887.36;128032.00;0.43;221.94;;;;;14.90;1.00;;;;;;2272146;61;1297;-87
2022/04/29 00:32:11;306031.00;1.02;528.29;97706.00;0.33;169.61;;;;;14.30;1.00;;;;;;2272112;61;1918;-88
2022/04/29 00:34:38;338259.00;1.13;583.68;84366.00;0.28;146.58;;;;;14.30;1.00;;;;;;2272130;61;1055;-87
2022/04/29 00:37:05;246556.00;0.82;426.03;78296.00;0.26;136.09;;;;;14.90;1.00;;;;;;2272107;61;1042;-88
2022/04/29 00:39:32;341345.00;1.14;588.99;86973.00;0.29;151.08;;;;;15.10;1.00;;;;;;2272075;61;1328;-87
2022/04/29 00:42:00;212499.00;0.71;367.44;82864.00;0.28;143.98;;;;;14.70;1.00;;;;;;2272064;61;1666;-86
2022/04/29 00:44:26;168877.00;0.56;292.33;84244.00;0.28;146.37;;;;;14.80;1.00;;;;;;2272096;61;1028;-87
2022/04/29 00:46:53;166004.00;0.55;287.38;81299.00;0.27;141.28;;;;;15.00;1.00;;;;;;2272065;61;1134;-90
2022/04/29 00:49:22;253273.00;0.84;437.58;83568.00;0.28;145.20;;;;;14.70;1.00;;;;;;2272005;61;1601;-86
2022/04/29 00:51:51;216346.00;0.72;374.06;85602.00;0.29;148.71;;;;;14.30;1.00;;;;;;2272142;61;1923;-87
2022/04/29 00:54:25;251710.00;0.84;434.89;83528.00;0.28;145.13;;;;;14.10;1.00;;;;;;2272095;61;1790;-88
2022/04/29 00:56:54;216966.00;0.72;375.12;85566.00;0.29;148.65;;;;;14.00;1.00;;;;;;2272203;61;942;-88
2022/04/29 00:59:27;260402.00;0.87;449.84;80099.00;0.27;139.21;;;;;14.40;1.00;;;;;;2272071;61;1018;-87
2022/04/29 01:01:57;232672.00;0.78;402.15;81740.00;0.27;142.04;;;;;15.10;1.00;;;;;;2272104;61;903;-87
2022/04/29 01:04:38;221788.00;0.74;383.42;81355.00;0.27;141.38;;;;;15.50;1.00;;;;;;2271963;61;2297;-85
2022/04/29 01:07:05;301564.00;1.01;520.61;101838.00;0.34;176.74;;;;;15.00;1.00;;;;;;2272085;61;1071;-86
2022/04/29 01:09:32;275706.00;0.92;476.15;86008.00;0.29;149.41;;;;;15.00;1.00;;;;;;2271915;61;1608;-88
2022/04/29 01:11:59;276791.00;0.92;478.02;85062.00;0.28;147.78;;;;;14.60;1.00;;;;;;2271868;61;1990;-85
2022/04/29 01:14:26;216144.00;0.72;373.71;99616.00;0.33;172.91;;;;;14.90;1.00;;;;;;2271987;61;1612;-88
2022/04/29 01:16:58;174885.00;0.58;302.68;84066.00;0.28;146.06;;;;;14.30;1.00;;;;;;2272338;61;1064;-87
2022/04/29 01:19:27;317389.00;1.06;547.81;81199.00;0.27;141.11;;;;;14.40;1.00;;;;;;2272568;61;1634;-87
2022/04/29 01:21:54;418624.00;1.40;721.82;81184.00;0.27;141.08;;;;;14.30;1.00;;;;;;2272659;61;1438;-85
2022/04/29 01:24:22;172936.00;0.58;299.32;86812.00;0.29;150.80;;;;;14.00;1.00;;;;;;2272687;61;1095;-88
2022/04/29 01:26:49;306471.00;1.02;529.04;85333.00;0.28;148.25;;;;;13.80;1.00;;;;;;2272647;61;2263;-88
2022/04/29 01:29:18;170391.00;0.57;294.94;90322.00;0.30;156.86;;;;;13.50;1.00;;;;;;2272721;61;1074;-89
2022/04/29 01:31:46;305655.00;1.02;527.64;80606.00;0.27;140.08;;;;;13.40;1.00;;;;;;2272606;61;2012;-88
2022/04/29 01:34:13;191559.00;0.64;331.39;90557.00;0.30;157.27;;;;;13.80;1.00;;;;;;2272675;61;1059;-89
2022/04/29 01:36:40;193171.00;0.64;334.17;34779.00;0.12;60.85;;;;;14.60;1.00;;;;;;2272626;61;1118;-87
2022/04/29 01:39:07;12635.00;0.04;22.51;0.00;0.00;0.62;;;;;14.60;1.00;;;;;;2272599;61;1741;-88
2022/04/29 01:41:35;9164.00;0.03;16.50;0.00;0.00;0.62;;;;;14.70;1.00;;;;;;2272626;61;1246;-88
2022/04/29 01:44:02;258546.00;0.86;446.65;24168.00;0.08;42.49;;;;;14.80;1.00;;;;;;2272633;61;1494;-85
2022/04/29 01:46:29;115749.00;0.39;200.75;0.00;0.00;0.62;;;;;14.70;1.00;;;;;;2272563;61;2283;-89
2022/04/29 01:48:56;29642.00;0.10;51.96;0.00;0.00;0.62;;;;;14.70;1.00;;;;;;2272593;61;1044;-88
2022/04/29 01:51:23;95300.00;0.32;165.46;0.00;0.00;0.62;;;;;14.30;1.00;;;;;;2272570;61;1395;-85
2022/04/29 01:53:53;55006.00;0.18;95.84;0.00;0.00;0.62;;;;;14.50;1.00;;;;;;2272612;61;2023;-87
2022/04/29 01:56:21;0.00;0.00;0.62;0.00;0.00;0.62;;;;;14.80;1.00;;;;;;2272540;61;1546;-89
2022/04/29 01:59:01;216321.00;0.72;374.01;65922.00;0.22;114.71;;;;;14.90;1.00;;;;;;2272627;61;1014;-86
2022/04/29 02:01:28;195073.00;0.65;337.44;83150.00;0.28;144.48;;;;;15.10;1.00;;;;;;2272511;61;1345;-85
2022/04/29 02:03:55;165918.00;0.55;287.23;78684.00;0.26;136.76;;;;;14.60;1.00;;;;;;2272346;61;1601;-86
2022/04/29 02:06:22;266131.00;0.89;459.69;84380.00;0.28;146.60;;;;;14.60;1.00;;;;;;2272602;61;1552;-88
2022/04/29 02:08:49;183359.00;0.61;317.27;79124.00;0.26;137.52;;;;;14.20;1.00;;;;;;2272546;61;1140;-88
2022/04/29 02:11:17;208590.00;0.70;360.71;85495.00;0.28;148.53;;;;;14.20;1.00;;;;;;2272527;61;1425;-87
2022/04/29 02:13:44;301402.00;1.00;520.33;86028.00;0.29;149.45;;;;;14.00;1.00;;;;;;2272530;61;1997;-88
2022/04/29 02:16:13;218533.00;0.73;377.82;68981.00;0.23;120.00;;;;;13.50;1.00;;;;;;2272463;61;1120;-86
2022/04/29 02:18:41;225392.00;0.75;389.62;82806.00;0.28;143.88;;;;;13.60;1.00;;;;;;2272493;61;1085;-87
2022/04/29 02:21:08;270914.00;0.90;467.92;87481.00;0.29;151.96;;;;;13.80;1.00;;;;;;2272402;61;1335;-87
2022/04/29 02:23:35;319286.00;1.06;551.07;80095.00;0.27;139.20;;;;;13.90;1.00;;;;;;2272508;61;1112;-88
2022/04/29 02:26:02;160865.00;0.54;278.53;82611.00;0.28;143.55;;;;;13.80;1.00;;;;;;2272557;61;982;-88
2022/04/29 02:28:31;264978.00;0.88;457.71;84433.00;0.28;146.69;;;;;13.80;1.00;;;;;;2272494;61;1116;-88
2022/04/29 02:30:58;302147.00;1.01;521.61;82607.00;0.28;143.54;;;;;14.00;1.00;;;;;;2272476;61;1283;-87
2022/04/29 02:33:27;166789.00;0.56;288.74;78641.00;0.26;136.69;;;;;13.70;1.00;;;;;;2272446;61;1986;-88
2022/04/29 02:35:55;168183.00;0.56;291.14;83091.00;0.28;144.38;;;;;13.50;1.00;;;;;;2272513;61;1044;-88
2022/04/29 02:38:23;181304.00;0.60;313.74;86813.00;0.29;150.80;;;;;13.80;1.00;;;;;;2272519;61;1106;-89
2022/04/29 02:40:50;168630.00;0.56;291.91;84989.00;0.28;147.65;;;;;13.90;1.00;;;;;;2272448;61;1422;-88
2022/04/29 02:43:17;311548.00;1.04;537.77;81131.00;0.27;140.99;;;;;13.70;1.00;;;;;;2272464;61;1041;-88
2022/04/29 02:45:46;263697.00;0.88;455.51;0.00;0.00;0.62;;;;;13.50;1.00;;;;;;2272421;61;1111;-88
2022/04/29 02:48:14;343159.00;1.14;592.10;146857.00;0.49;254.39;;;;;13.10;1.00;;;;;;2272385;61;1234;-88
2022/04/29 02:50:42;60802.00;0.20;105.86;0.00;0.00;0.62;;;;;13.40;1.00;;;;;;2272365;61;1616;-89
2022/04/29 02:53:09;7473.00;0.02;13.57;0.00;0.00;0.62;;;;;14.10;1.00;;;;;;2272432;61;1993;-87
2022/04/29 02:55:36;16490.00;0.05;29.19;0.00;0.00;0.62;;;;;14.10;1.00;;;;;;2272497;61;1067;-87
2022/04/29 02:58:03;206757.00;0.69;357.55;0.00;0.00;0.62;;;;;14.50;1.00;;;;;;2272326;61;1031;-88
2022/04/29 03:00:30;0.00;0.00;0.62;0.00;0.00;0.62;;;;;14.30;1.00;;;;;;2272363;61;1390;-87
2022/04/29 03:02:57;91474.00;0.30;158.85;0.00;0.00;0.62;;;;;13.70;1.00;;;;;;2272308;61;1109;-87
2022/04/29 03:05:24;0.00;0.00;0.62;0.00;0.00;0.62;;;;;13.30;1.00;;;;;;2272313;61;1023;-87
2022/04/29 03:07:52;63844.00;0.21;111.12;0.00;0.00;0.62;;;;;13.00;1.00;;;;;;2272287;61;1157;-87
2022/04/29 03:10:19;141809.00;0.47;245.69;0.00;0.00;0.62;;;;;12.50;1.00;;;;;;2272009;61;1282;-88
2022/04/29 03:12:46;3325.00;0.01;6.38;0.00;0.00;0.62;;;;;13.20;1.00;;;;;;2272216;61;1918;-88
2022/04/29 03:15:16;0.00;0.00;0.62;0.00;0.00;0.62;;;;;13.70;1.00;;;;;;2272229;61;1555;-88
2022/04/29 03:20:28;55126.00;0.18;96.05;0.00;0.00;0.62;;;;;13.60;1.00;;;;;;2272297;61;1383;-85
2022/04/29 03:22:56;38365.00;0.13;67.06;0.00;0.00;0.62;;;;;13.20;1.00;;;;;;2272274;61;1111;-86
2022/04/29 03:25:23;6651.00;0.02;12.15;0.00;0.00;0.62;;;;;13.20;1.00;;;;;;2272342;61;1065;-88
2022/04/29 03:27:50;7688.00;0.03;13.94;0.00;0.00;0.62;;;;;13.50;1.00;;;;;;2272306;61;1035;-87
2022/04/29 03:30:17;0.00;0.00;0.62;0.00;0.00;0.62;;;;;13.60;1.00;;;;;;2272267;61;1400;-86
2022/04/29 03:32:52;21445.00;0.07;37.77;0.00;0.00;0.62;;;;;13.50;1.00;;;;;;2272182;61;1927;-86
2022/04/29 03:35:18;127498.00;0.42;221.01;0.00;0.00;0.62;;;;;13.50;1.00;;;;;;2272275;61;1130;-85
2022/04/29 03:37:45;0.00;0.00;0.62;0.00;0.00;0.62;;;;;13.60;1.00;;;;;;2272215;61;1047;-89
2022/04/29 03:40:15;22722.00;0.08;39.98;0.00;0.00;0.62;;;;;13.50;1.00;;;;;;2272014;61;1296;-86
2022/04/29 03:42:41;40959.00;0.14;71.55;0.00;0.00;0.62;;;;;13.50;1.00;;;;;;2272270;61;1569;-88
2022/04/29 03:45:10;52931.00;0.18;92.25;0.00;0.00;0.62;;;;;13.20;1.00;;;;;;2272233;61;1142;-86
2022/04/29 03:47:36;0.00;0.00;0.62;0.00;0.00;0.62;;;;;13.40;1.00;;;;;;2272201;61;1045;-87
2022/04/29 03:50:04;1478.00;0.00;3.18;0.00;0.00;0.62;;;;;13.10;1.00;;;;;;2272193;61;1345;-86
2022/04/29 03:52:31;0.00;0.00;0.62;0.00;0.00;0.62;;;;;13.20;1.00;;;;;;2272180;61;1906;-87
2022/04/29 03:54:59;13850.00;0.05;24.62;0.00;0.00;0.62;;;;;13.80;1.00;;;;;;2272237;61;1131;-88
2022/04/29 03:57:27;132987.00;0.44;230.48;0.00;0.00;0.62;;;;;14.10;1.00;;;;;;2272239;61;1125;-88
2022/04/29 03:59:54;7613.00;0.03;13.81;0.00;0.00;0.62;;;;;13.60;1.00;;;;;;2272219;61;1413;-87
2022/04/29 04:02:21;0.00;0.00;0.62;0.00;0.00;0.62;;;;;13.10;1.00;;;;;;2272154;61;1235;-85
2022/04/29 04:04:48;30309.00;0.10;53.12;0.00;0.00;0.62;;;;;13.20;1.00;;;;;;2272222;61;1098;-87
2022/04/29 04:07:15;99537.00;0.33;172.77;0.00;0.00;0.62;;;;;13.50;1.00;;;;;;2272143;61;1070;-90
2022/04/29 04:09:42;0.00;0.00;0.62;0.00;0.00;0.62;;;;;13.70;1.00;;;;;;2272194;61;1290;-87
2022/04/29 04:12:10;178954.00;0.60;309.69;32003.00;0.11;56.05;;;;;13.50;1.00;;;;;;2272188;61;1062;-88
2022/04/29 04:14:39;9238.00;0.03;16.63;0.00;0.00;0.62;;;;;13.50;1.00;;;;;;2272179;61;2010;-88
2022/04/29 04:17:07;41123.00;0.14;71.83;0.00;0.00;0.62;;;;;13.80;1.00;;;;;;2272172;61;974;-88
2022/04/29 04:19:34;47991.00;0.16;83.71;0.00;0.00;0.62;;;;;13.70;1.00;;;;;;2272118;61;1256;-87
2022/04/29 04:22:04;82058.00;0.27;142.59;0.00;0.00;0.62;;;;;13.70;1.00;;;;;;2272149;61;970;-88
2022/04/29 04:24:31;119080.00;0.40;206.50;0.00;0.00;0.62;;;;;13.20;1.00;;;;;;2272140;61;1102;-87
2022/04/29 04:26:58;0.00;0.00;0.62;0.00;0.00;0.62;;;;;12.70;1.00;;;;;;2272091;61;1105;-85
2022/04/29 04:29:24;0.00;0.00;0.62;0.00;0.00;0.62;;;;;12.80;1.00;;;;;;2272175;61;1367;-87
2022/04/29 04:31:53;76809.00;0.26;133.52;0.00;0.00;0.62;;;;;13.20;1.00;;;;;;2272100;61;1168;-87
2022/04/29 04:37:06;182932.00;0.61;316.54;0.00;0.00;0.62;;;;;12.60;1.00;;;;;;2272171;61;599;-86
2022/04/29 04:39:33;52878.00;0.18;92.16;0.00;0.00;0.62;;;;;11.80;1.00;;;;;;2272032;61;1312;-86
2022/04/29 04:42:00;253767.00;0.85;438.43;42505.00;0.14;74.22;;;;;11.30;1.00;;;;;;2271977;61;1106;-86
2022/04/29 04:44:27;122950.00;0.41;213.17;0.00;0.00;0.62;;;;;10.90;1.00;;;;;;2271982;61;1095;-87
2022/04/29 04:46:55;154426.00;0.51;267.43;0.00;0.00;0.62;;;;;10.50;1.00;;;;;;2272039;61;1693;-86
2022/04/29 04:49:22;54409.00;0.18;94.81;0.00;0.00;0.62;;;;;10.50;1.00;;;;;;2271978;61;1684;-87
2022/04/29 04:51:49;39839.00;0.13;69.61;0.00;0.00;0.62;;;;;10.30;1.00;;;;;;2272682;61;1051;-87
2022/04/29 04:54:16;28458.00;0.09;49.91;0.00;0.00;0.62;;;;;10.50;1.00;;;;;;2272735;61;1929;-88
2022/04/29 04:56:43;42377.00;0.14;74.00;0.00;0.00;0.62;;;;;10.70;1.00;;;;;;2272585;61;1013;-85
2022/04/29 04:59:10;65100.00;0.22;113.29;0.00;0.00;0.62;;;;;10.50;1.00;;;;;;2272746;61;926;-88
2022/04/29 05:01:37;169819.00;0.57;293.95;38947.00;0.13;68.07;;;;;11.30;1.00;;;;;;2272745;61;1308;-87
2022/04/29 05:04:05;35922.00;0.12;62.83;0.00;0.00;0.62;;;;;11.60;1.00;;;;;;2272571;61;1729;-88
2022/04/29 05:06:32;12564.00;0.04;22.39;0.00;0.00;0.62;;;;;11.20;1.00;;;;;;2272723;61;1258;-87
2022/04/29 05:08:59;331009.00;1.10;571.22;74539.00;0.25;129.60;;;;;10.70;1.00;;;;;;2272740;61;975;-87
2022/04/29 05:11:26;659010.00;2.20;1136.23;50109.00;0.17;87.37;;;;;10.60;1.00;;;;;;2272665;61;1412;-86
2022/04/29 05:13:53;0.00;0.00;0.62;0.00;0.00;0.62;;;;;10.50;1.00;;;;;;2272684;61;1994;-87
2022/04/29 05:16:20;144641.00;0.48;250.57;0.00;0.00;0.62;;;;;10.80;1.00;;;;;;2272641;61;1005;-87
2022/04/29 05:18:47;28769.00;0.10;50.45;0.00;0.00;0.62;;;;;10.80;1.00;;;;;;2272618;61;1557;-88
2022/04/29 05:21:15;35184.00;0.12;61.56;0.00;0.00;0.62;;;;;11.20;1.00;;;;;;2272444;61;1300;-87
2022/04/29 05:23:42;213635.00;0.71;369.39;0.00;0.00;0.62;;;;;11.00;1.00;;;;;;2272362;61;1058;-88
2022/04/29 05:26:09;156133.00;0.52;270.38;0.00;0.00;0.62;;;;;10.80;1.00;;;;;;2272640;61;1524;-86
2022/04/29 05:28:37;319721.00;1.07;551.82;124358.00;0.41;215.60;;;;;11.10;1.00;;;;;;2272574;61;937;-88
2022/04/29 05:31:05;117598840.00;392.00;65877876.00;0.00;0.00;0.62;;;;;11.60;1.00;;;;;;2272595;61;1321;-86
2022/04/29 05:33:32;80782.00;0.27;140.39;0.00;0.00;0.62;;;;;12.00;1.00;;;;;;2272513;61;2248;-87
2022/04/29 05:36:00;0.00;0.00;0.62;0.00;0.00;0.62;;;;;13.00;1.00;;;;;;2272275;61;1700;-88
2022/04/29 05:42:14;85583.00;0.29;148.68;0.00;0.00;0.62;;;;;14.10;1.00;;;;;;2272499;61;971;-88
2022/04/29 05:43:58;0.00;0.00;0.62;0.00;0.00;0.62;;;;;15.60;1.00;;;;;;2265971;61;1404;-88
2022/04/29 05:46:25;181457.00;0.60;314.00;0.00;0.00;0.62;;;;;16.30;1.00;;;;;;2272404;61;2321;-88
2022/04/29 05:48:52;0.00;0.00;0.62;0.00;0.00;0.62;;;;;16.70;1.00;;;;;;2272559;61;1030;-88
2022/04/29 05:51:19;51508.00;0.17;89.79;0.00;0.00;0.62;;;;;17.00;1.00;;;;;;2272561;61;1390;-88
2022/04/29 05:53:47;63430.00;0.21;110.41;0.00;0.00;0.62;;;;;17.50;1.00;;;;;;2272465;61;1998;-87
2022/04/29 05:56:14;35556.00;0.12;62.20;0.00;0.00;0.62;;;;;17.10;1.00;;;;;;2272612;61;1106;-86
2022/04/29 05:58:41;126418.00;0.42;219.15;0.00;0.00;0.62;;;;;16.50;1.00;;;;;;2272546;61;1062;-88
2022/04/29 06:01:08;170979.00;0.57;295.95;74917.00;0.25;130.26;;;;;15.70;1.00;;;;;;2272490;61;1572;-87
2022/04/29 06:03:35;0.00;0.00;0.62;0.00;0.00;0.62;;;;;15.20;1.00;;;;;;2272523;61;923;-87
2022/04/29 06:06:02;205416.00;0.68;355.25;0.00;0.00;0.62;;;;;15.50;1.00;;;;;;2272491;61;1504;-87
2022/04/29 06:08:29;201521.00;0.67;348.54;0.00;0.00;0.62;;;;;15.80;1.00;;;;;;2272558;61;1042;-87
2022/04/29 06:10:57;17959.00;0.06;31.74;0.00;0.00;0.62;;;;;16.60;1.00;;;;;;2272433;61;1371;-85
2022/04/29 06:13:24;103595.00;0.35;179.78;0.00;0.00;0.62;;;;;17.40;1.00;;;;;;2272428;61;2001;-86
2022/04/29 06:15:51;113518.00;0.38;196.90;0.00;0.00;0.62;;;;;18.60;1.00;;;;;;2272418;61;1241;-85
2022/04/29 06:18:18;7578.00;0.03;13.75;0.00;0.00;0.62;;;;;19.80;1.00;;;;;;2272409;61;1080;-87
2022/04/29 06:20:45;20805.00;0.07;36.66;0.00;0.00;0.62;;;;;21.10;1.00;;;;;;2272387;61;1423;-88
2022/04/29 06:23:11;34232.00;0.11;59.91;0.00;0.00;0.62;;;;;22.50;1.00;;;;;;2272465;61;993;-86
2022/04/29 06:25:38;34948.00;0.12;61.15;0.00;0.00;0.62;;;;;23.10;1.00;;;;;;2272441;61;1047;-87
2022/04/29 06:28:07;89932.00;0.30;156.19;0.00;0.00;0.62;;;;;24.10;1.00;;;;;;2272523;61;1051;-87
2022/04/29 06:30:34;137415.00;0.46;238.11;64499.00;0.21;112.25;;;;;25.20;1.00;;;;;;2272393;61;1280;-86
2022/04/29 06:33:01;36969.00;0.12;64.64;0.00;0.00;0.62;;;;;25.10;1.00;;;;;;2272421;61;1085;-85
2022/04/29 06:35:28;312225.00;1.04;538.93;22392.00;0.07;39.41;;;;;25.10;1.00;;;;;;2272261;61;1926;-86
2022/04/29 06:37:55;178083.00;0.59;308.19;25936.00;0.09;45.55;;;;;25.20;1.00;;;;;;2272275;61;1138;-86
2022/04/29 06:40:22;233384.00;0.78;403.37;0.00;0.00;0.62;;;;;24.40;1.00;;;;;;2272034;61;1355;-86
2022/04/29 06:42:50;43243.00;0.14;75.50;0.00;0.00;0.62;;;;;23.90;1.00;;;;;;2272403;61;2188;-88
2022/04/29 06:45:18;147937.00;0.49;256.25;30298.00;0.10;53.10;;;;;23.50;1.00;;;;;;2272427;61;2008;-87
2022/04/29 06:47:45;102147.00;0.34;177.28;0.00;0.00;0.62;;;;;23.30;1.00;;;;;;2272591;61;1095;-87
2022/04/29 06:50:12;0.00;0.00;0.62;0.00;0.00;0.62;;;;;22.70;1.00;;;;;;2272421;61;1284;-88
2022/04/29 06:52:39;0.00;0.00;0.62;0.00;0.00;0.62;;;;;21.30;1.00;;;;;;2272520;61;1601;-88
2022/04/29 06:55:07;22991.00;0.08;40.45;0.00;0.00;0.62;;;;;21.10;1.00;;;;;;2272423;61;2011;-86
2022/04/29 06:57:35;318950.00;1.06;550.49;0.00;0.00;0.62;;;;;20.50;1.00;;;;;;2272456;61;1039;-87
2022/04/29 07:00:03;928452.00;3.09;1606.15;63642.00;0.21;110.77;;;;;21.30;1.00;;;;;;2272468;61;1293;-86
2022/04/29 07:02:31;1545263.00;5.15;2728.58;57921.00;0.19;100.88;;;;;21.40;1.00;;;;;;2272455;61;1641;-86
2022/04/29 07:04:58;1554672.00;5.18;2746.42;162190.00;0.54;280.81;;;;;21.90;1.00;;;;;;2272365;61;1105;-86
2022/04/29 07:07:28;551845.00;1.84;951.14;99397.00;0.33;172.53;;;;;22.70;1.00;;;;;;2272451;61;1020;-87
2022/04/29 07:09:55;212401.00;0.71;367.27;82824.00;0.28;143.92;;;;;23.00;1.00;;;;;;2272309;61;1382;-87
2022/04/29 07:12:22;221578.00;0.74;383.06;80204.00;0.27;139.39;;;;;23.40;1.00;;;;;;2272337;61;921;-87
2022/04/29 07:14:51;309310.00;1.03;533.92;68555.00;0.23;119.26;;;;;23.60;1.00;;;;;;2271964;61;1920;-86
2022/04/29 07:17:20;305400.00;1.02;527.20;78741.00;0.26;136.86;;;;;24.00;1.00;;;;;;2272350;61;1346;-88
2022/04/29 07:19:49;170016.00;0.57;294.29;81497.00;0.27;141.62;;;;;24.20;1.00;;;;;;2272406;61;1585;-86
2022/04/29 07:22:16;55450.00;0.18;96.61;0.00;0.00;0.62;;;;;24.60;1.00;;;;;;2272353;61;1072;-86
2022/04/29 07:24:44;48827.00;0.16;85.16;0.00;0.00;0.62;;;;;24.70;1.00;;;;;;2272321;61;1234;-87
2022/04/29 07:27:10;79626.00;0.27;138.39;0.00;0.00;0.62;;;;;24.20;1.00;;;;;;2272400;61;1092;-86
2022/04/29 07:29:37;7243.00;0.02;13.17;0.00;0.00;0.62;;;;;23.90;1.00;;;;;;2272306;61;1448;-88
2022/04/29 07:32:05;124487.00;0.41;215.82;0.00;0.00;0.62;;;;;24.20;1.00;;;;;;2272396;61;1098;-86
2022/04/29 07:42:46;173953.00;0.58;301.08;82073.00;0.27;142.62;;;;;24.80;1.00;;;;;;2272414;61;663;-86
2022/04/29 07:45:13;111326.00;0.37;193.12;0.00;0.00;0.62;;;;;24.30;1.00;;;;;;2272326;61;2212;-86
2022/04/29 07:47:40;0.00;0.00;0.62;0.00;0.00;0.62;;;;;24.70;1.00;;;;;;2272360;61;1098;-88
2022/04/29 07:50:08;186428.00;0.62;322.56;13677.00;0.05;24.32;;;;;25.30;1.00;;;;;;2272447;61;1291;-88
2022/04/29 07:52:36;0.00;0.00;0.62;0.00;0.00;0.62;;;;;25.60;1.00;;;;;;2272281;61;1138;-86
2022/04/29 07:55:03;0.00;0.00;0.62;0.00;0.00;0.62;;;;;25.10;1.00;;;;;;2272312;61;2000;-87
2022/04/29 07:57:30;99111.00;0.33;172.04;32593.00;0.11;57.07;;;;;25.30;1.00;;;;;;2272251;61;1038;-88
2022/04/29 07:59:57;71926.00;0.24;125.09;0.00;0.00;0.62;;;;;25.00;1.00;;;;;;2272300;61;1544;-88
2022/04/29 08:02:24;113063.00;0.38;196.12;0.00;0.00;0.62;;;;;25.50;1.00;;;;;;2272373;61;1039;-87
2022/04/29 08:04:51;80021.00;0.27;139.07;0.00;0.00;0.62;;;;;25.70;1.00;;;;;;2272464;61;1141;-88
2022/04/29 08:07:17;28780.00;0.10;50.47;0.00;0.00;0.62;;;;;26.40;1.00;;;;;;2272327;61;1035;-88
2022/04/29 08:09:46;22297.00;0.07;39.25;0.00;0.00;0.62;;;;;26.00;1.00;;;;;;2272316;61;1508;-86
2022/04/29 08:12:14;0.00;0.00;0.62;0.00;0.00;0.62;;;;;25.80;1.00;;;;;;2272214;61;1098;-87
2022/04/29 08:14:41;153380.00;0.51;265.63;0.00;0.00;0.62;;;;;24.90;1.00;;;;;;2272258;61;1988;-88
2022/04/29 08:17:08;33041.00;0.11;57.85;0.00;0.00;0.62;;;;;24.90;1.00;;;;;;2272265;61;1148;-86
2022/04/29 08:19:34;0.00;0.00;0.62;0.00;0.00;0.62;;;;;25.00;1.00;;;;;;2272156;61;1272;-89
2022/04/29 08:22:02;85229.00;0.28;148.07;0.00;0.00;0.62;;;;;24.80;1.00;;;;;;2272268;61;1579;-87
2022/04/29 08:24:29;106591.00;0.36;184.95;31389.00;0.10;54.99;;;;;25.00;1.00;;;;;;2272434;61;1520;-87
2022/04/29 08:26:57;0.00;0.00;0.62;0.00;0.00;0.62;;;;;25.20;1.00;;;;;;2273234;61;905;-87
2022/04/29 08:29:24;40926.00;0.14;71.49;0.00;0.00;0.62;;;;;25.30;1.00;;;;;;2273055;61;1372;-86
2022/04/29 08:31:51;0.00;0.00;0.62;0.00;0.00;0.62;;;;;24.60;1.00;;;;;;2272979;61;1074;-88
2022/04/29 08:34:18;0.00;0.00;0.62;0.00;0.00;0.62;;;;;23.50;1.00;;;;;;2272978;61;1914;-87
2022/04/29 08:36:45;13825.00;0.05;24.58;0.00;0.00;0.62;;;;;23.40;1.00;;;;;;2273050;61;1129;-87
2022/04/29 08:39:12;39126.00;0.13;68.38;0.00;0.00;0.62;;;;;23.00;1.00;;;;;;2272857;61;1475;-87
2022/04/29 08:41:41;61537.00;0.21;107.13;0.00;0.00;0.62;;;;;22.00;1.00;;;;;;2272885;61;1411;-87
2022/04/29 08:44:11;0.00;0.00;0.62;0.00;0.00;0.62;;;;;22.40;1.00;;;;;;2272927;61;934;-88
2022/04/29 08:46:40;52037.00;0.17;90.71;0.00;0.00;0.62;;;;;21.60;1.00;;;;;;2272925;61;1028;-87
2022/04/29 08:49:08;43679.00;0.15;76.25;0.00;0.00;0.62;;;;;21.60;1.00;;;;;;2272940;61;953;-88
2022/04/29 08:51:35;229545.00;0.77;396.77;49138.00;0.16;85.70;;;;;21.30;1.00;;;;;;2272880;61;1385;-86
2022/04/29 08:54:02;104740.00;0.35;181.75;0.00;0.00;0.62;;;;;21.20;1.00;;;;;;2272797;61;1915;-87
2022/04/29 08:59:15;44266.00;0.15;77.27;0.00;0.00;0.62;;;;;21.70;1.00;;;;;;2273051;61;738;-88
2022/04/29 09:01:44;10051.00;0.03;18.04;0.00;0.00;0.62;;;;;21.80;1.00;;;;;;2272867;61;1316;-87
2022/04/29 09:04:11;0.00;0.00;0.62;0.00;0.00;0.62;;;;;21.00;1.00;;;;;;2272907;61;1181;-88
2022/04/29 09:06:48;50144.00;0.17;87.44;0.00;0.00;0.62;;;;;20.40;1.00;;;;;;2272768;61;1110;-87
2022/04/29 09:09:15;149250.00;0.50;258.51;0.00;0.00;0.62;;;;;20.10;1.00;;;;;;2269005;61;1088;-86
2022/04/29 09:11:42;332236.00;1.11;573.33;74545.00;0.25;129.61;;;;;20.50;1.00;;;;;;2272255;61;1516;-86
2022/04/29 09:14:24;75704.00;0.25;131.62;0.00;0.00;0.62;;;;;20.10;1.00;;;;;;2272718;61;1989;-86
2022/04/29 09:16:51;0.00;0.00;0.62;0.00;0.00;0.62;;;;;20.10;1.00;;;;;;2272448;61;1626;-86
2022/04/29 09:19:32;19665.00;0.07;34.69;0.00;0.00;0.62;;;;;20.20;1.00;;;;;;2272639;61;1743;-86
2022/04/29 09:22:07;92932.00;0.31;161.37;0.00;0.00;0.62;;;;;20.90;1.00;;;;;;2272595;61;1031;-86
2022/04/29 09:24:34;0.00;0.00;0.62;0.00;0.00;0.62;;;;;21.00;1.00;;;;;;2272828;61;1015;-87
2022/04/29 09:27:03;24616.00;0.08;43.26;0.00;0.00;0.62;;;;;20.90;1.00;;;;;;2272807;61;1111;-88
2022/04/29 09:29:41;2073.00;0.01;4.21;0.00;0.00;0.62;;;;;21.30;1.00;;;;;;2272626;61;1604;-87
2022/04/29 09:32:09;25984.00;0.09;45.63;0.00;0.00;0.62;;;;;21.60;1.00;;;;;;2272713;61;2073;-88
2022/04/29 09:34:48;20627.00;0.07;36.36;0.00;0.00;0.62;;;;;21.90;1.00;;;;;;2272789;61;2235;-86
2022/04/29 09:37:17;24175.00;0.08;42.50;0.00;0.00;0.62;;;;;22.20;1.00;;;;;;2272472;61;1078;-88
2022/04/29 09:39:52;0.00;0.00;0.62;0.00;0.00;0.62;;;;;22.60;1.00;;;;;;2272723;61;1249;-87
2022/04/29 09:42:19;41092.00;0.14;71.78;0.00;0.00;0.62;;;;;22.00;1.00;;;;;;2272830;61;926;-86
2022/04/29 09:44:48;16412.00;0.05;29.06;0.00;0.00;0.62;;;;;21.50;1.00;;;;;;2272730;61;1583;-88
2022/04/29 09:47:17;297339.00;0.99;513.35;58151.00;0.19;101.28;;;;;21.70;1.00;;;;;;2272731;61;1029;-86
2022/04/29 09:49:54;204011.00;0.68;352.83;0.00;0.00;0.62;;;;;22.10;1.00;;;;;;2272726;61;1292;-88
2022/04/29 09:52:22;39496.00;0.13;69.02;0.00;0.00;0.62;;;;;21.70;1.00;;;;;;2272534;61;1786;-88
2022/04/29 09:54:50;824538.00;2.75;1423.95;176121.00;0.59;304.81;;;;;21.10;1.00;;;;;;2272600;61;2014;-87
2022/04/29 09:57:19;118267720.00;394.23;67009416.00;118212040.00;394.04;66914724.00;;;;;21.10;1.00;;;;;;2272576;61;1476;-86
2022/04/29 09:59:49;43644.00;0.15;76.19;0.00;0.00;0.62;;;;;21.40;1.00;;;;;;2272601;61;1278;-86
2022/04/29 10:02:18;10134.00;0.03;18.18;0.00;0.00;0.62;;;;;21.90;1.00;;;;;;2272642;61;1019;-84
2022/04/29 10:04:46;95921.00;0.32;166.53;0.00;0.00;0.62;;;;;22.50;1.00;;;;;;2272711;61;1450;-87
2022/04/29 10:07:17;40924.00;0.14;71.49;0.00;0.00;0.62;;;;;22.60;1.00;;;;;;2272452;61;1009;-87
2022/04/29 10:09:48;0.00;0.00;0.62;0.00;0.00;0.62;;;;;22.00;1.00;;;;;;2272589;61;1384;-85
2022/04/29 10:12:18;0.00;0.00;0.62;0.00;0.00;0.62;;;;;21.30;1.00;;;;;;2272523;61;1066;-85
2022/04/29 10:14:48;7058.00;0.02;12.85;0.00;0.00;0.62;;;;;21.40;1.00;;;;;;2272745;61;1912;-85
2022/04/29 10:22:51;172044.00;0.57;297.79;37792.00;0.13;66.07;;;;;22.00;1.00;;;;;;2272552;61;707;-87